createdAt,value
2023-05-02T00:00:53.355Z,43.88
2023-05-02T00:01:53.423Z,43.43
2023-05-02T00:02:53.722Z,37.83
2023-05-02T00:03:53.544Z,42.13
2023-05-02T00:04:53.545Z,41.96
2023-05-02T00:05:53.749Z,39.90
2023-05-02T00:06:53.684Z,40.30
2023-05-02T00:07:53.639Z,40.50
2023-05-02T00:08:53.703Z,39.85
2023-05-02T00:09:53.765Z,40.70
2023-05-02T00:10:54.245Z,39.74
2023-05-02T00:11:53.867Z,38.70
2023-05-02T00:12:54.003Z,43.09
2023-05-02T00:13:53.942Z,40.02
2023-05-02T00:14:54.015Z,41.15
2023-05-02T00:15:54.236Z,38.13
2023-05-02T00:16:54.129Z,40.28
2023-05-02T00:17:54.164Z,40.62
2023-05-02T00:18:54.176Z,39.52
2023-05-02T00:19:54.221Z,39.75
2023-05-02T00:20:54.753Z,43.02
2023-05-02T00:21:54.305Z,41.13
2023-05-02T00:22:54.357Z,40.48
2023-05-02T00:23:54.407Z,39.93
2023-05-02T00:24:54.430Z,39.13
2023-05-02T00:25:54.741Z,39.14
2023-05-02T00:26:54.531Z,42.13
2023-05-02T00:27:54.630Z,38.01
2023-05-02T00:28:54.650Z,41.98
2023-05-02T00:29:54.672Z,39.16
2023-05-02T00:30:54.777Z,39.72
2023-05-02T00:31:54.774Z,38.84
2023-05-02T00:32:54.835Z,42.86
2023-05-02T00:33:54.863Z,40.03
2023-05-02T00:34:54.906Z,41.47
2023-05-02T00:35:55.267Z,40.17
2023-05-02T00:36:55.010Z,44.45
2023-05-02T00:37:55.082Z,43.60
2023-05-02T00:38:55.071Z,43.48
2023-05-02T00:39:55.121Z,41.59
2023-05-02T00:40:55.264Z,42.04
2023-05-02T00:41:55.164Z,41.99
2023-05-02T00:42:55.178Z,40.44
2023-05-02T00:43:55.200Z,40.00
2023-05-02T00:44:55.244Z,40.66
2023-05-02T00:45:55.775Z,39.93
2023-05-02T00:46:55.423Z,39.74
2023-05-02T00:47:55.401Z,38.57
2023-05-02T00:48:55.440Z,39.49
2023-05-02T00:49:55.496Z,39.71
2023-05-02T00:50:55.741Z,42.72
2023-05-02T00:51:56.257Z,40.70
2023-05-02T00:52:55.609Z,37.92
2023-05-02T00:53:55.653Z,43.18
2023-05-02T00:54:55.708Z,39.47
2023-05-02T00:55:56.246Z,38.74
2023-05-02T00:56:55.813Z,40.70
2023-05-02T00:57:55.865Z,40.54
2023-05-02T00:58:55.905Z,41.38
2023-05-02T00:59:55.963Z,39.33
2023-05-02T01:00:55.995Z,39.12
2023-05-02T01:01:56.091Z,38.39
2023-05-02T01:02:56.148Z,38.50
2023-05-02T01:03:56.255Z,43.03
2023-05-02T01:04:56.169Z,37.93
2023-05-02T01:05:56.245Z,40.99
2023-05-02T01:06:56.266Z,39.78
2023-05-02T01:07:56.335Z,38.98
2023-05-02T01:08:56.372Z,42.64
2023-05-02T01:09:56.484Z,41.72
2023-05-02T01:10:56.758Z,41.66
2023-05-02T01:11:56.502Z,41.18
2023-05-02T01:12:56.539Z,43.44
2023-05-02T01:13:56.607Z,38.95
2023-05-02T01:14:56.634Z,40.35
2023-05-02T01:15:56.801Z,40.22
2023-05-02T01:16:56.726Z,37.87
2023-05-02T01:17:56.878Z,39.57
2023-05-02T01:18:56.822Z,40.00
2023-05-02T01:19:56.936Z,39.48
2023-05-02T01:20:57.291Z,41.63
2023-05-02T01:21:56.946Z,43.12
2023-05-02T01:22:57.022Z,40.50
2023-05-02T01:23:57.055Z,38.78
2023-05-02T01:24:57.113Z,41.32
2023-05-02T01:25:57.277Z,38.76
2023-05-02T01:26:57.212Z,39.86
2023-05-02T01:27:57.249Z,43.83
2023-05-02T01:28:57.272Z,39.72
2023-05-02T01:29:57.404Z,41.56
2023-05-02T01:30:57.830Z,41.09
2023-05-02T01:31:57.507Z,37.79
2023-05-02T01:32:57.469Z,39.97
2023-05-02T01:33:57.494Z,37.33
2023-05-02T01:34:57.557Z,39.46
2023-05-02T01:35:57.599Z,38.19
2023-05-02T01:36:57.783Z,38.58
2023-05-02T01:37:57.707Z,36.37
2023-05-02T01:38:57.733Z,39.15
2023-05-02T01:39:57.896Z,41.49
2023-05-02T01:40:57.841Z,38.81
2023-05-02T01:41:57.905Z,38.44
2023-05-02T01:42:57.932Z,39.66
2023-05-02T01:43:57.978Z,38.29
2023-05-02T01:44:58.068Z,37.78
2023-05-02T01:45:58.079Z,36.93
2023-05-02T01:46:58.183Z,37.57
2023-05-02T01:47:58.240Z,39.09
2023-05-02T01:48:58.230Z,38.25
2023-05-02T01:49:58.499Z,35.55
2023-05-02T01:50:58.375Z,34.82
2023-05-02T01:51:58.356Z,37.18
2023-05-02T01:52:58.410Z,40.54
2023-05-02T01:53:58.458Z,40.89
2023-05-02T01:54:58.504Z,39.10
2023-05-02T01:55:58.789Z,40.33
2023-05-02T01:56:58.582Z,39.64
2023-05-02T01:57:58.624Z,38.59
2023-05-02T01:58:58.777Z,37.64
2023-05-02T01:59:58.897Z,35.97
2023-05-02T02:00:58.877Z,37.03
2023-05-02T02:01:58.865Z,36.44
2023-05-02T02:02:58.906Z,33.83
2023-05-02T02:03:58.964Z,37.96
2023-05-02T02:04:58.985Z,36.71
2023-05-02T02:05:59.379Z,35.96
2023-05-02T02:06:59.101Z,38.75
2023-05-02T02:07:59.116Z,38.46
2023-05-02T02:08:59.167Z,39.28
2023-05-02T02:09:59.465Z,36.75
2023-05-02T02:10:59.268Z,35.08
2023-05-02T02:11:59.291Z,36.22
2023-05-02T02:12:59.389Z,37.81
2023-05-02T02:13:59.424Z,34.75
2023-05-02T02:14:59.431Z,36.13
2023-05-02T02:15:59.494Z,36.13
2023-05-02T02:16:59.931Z,34.15
2023-05-02T02:17:59.631Z,37.48
2023-05-02T02:18:59.644Z,36.12
2023-05-02T02:20:00.048Z,35.47
2023-05-02T02:20:59.785Z,34.72
2023-05-02T02:21:59.775Z,35.29
2023-05-02T02:22:59.860Z,35.17
2023-05-02T02:23:59.898Z,33.46
2023-05-02T02:24:59.963Z,32.98
2023-05-02T02:25:59.990Z,34.92
2023-05-02T02:27:00.052Z,35.38
2023-05-02T02:28:00.138Z,35.04
2023-05-02T02:29:00.139Z,36.99
2023-05-02T02:30:00.485Z,35.35
2023-05-02T02:31:00.256Z,36.31
2023-05-02T02:32:00.298Z,33.99
2023-05-02T02:33:00.398Z,35.34
2023-05-02T02:34:00.398Z,35.35
2023-05-02T02:35:00.413Z,37.25
2023-05-02T02:36:00.461Z,35.97
2023-05-02T02:37:00.764Z,40.32
2023-05-02T02:38:00.557Z,36.14
2023-05-02T02:39:00.582Z,36.81
2023-05-02T02:40:01.073Z,38.68
2023-05-02T02:41:00.655Z,36.36
2023-05-02T02:42:00.737Z,39.04
2023-05-02T02:43:00.728Z,35.53
2023-05-02T02:44:00.753Z,37.61
2023-05-02T02:45:00.826Z,37.56
2023-05-02T02:46:00.922Z,35.99
2023-05-02T02:47:00.927Z,34.89
2023-05-02T02:48:00.985Z,35.12
2023-05-02T02:49:01.029Z,38.64
2023-05-02T02:50:01.316Z,35.94
2023-05-02T02:51:01.111Z,37.58
2023-05-02T02:52:01.144Z,38.06
2023-05-02T02:53:01.199Z,37.07
2023-05-02T02:54:01.246Z,35.58
2023-05-02T02:55:01.274Z,36.51
2023-05-02T02:56:01.328Z,36.92
2023-05-02T02:57:01.373Z,37.53
2023-05-02T02:58:01.399Z,39.72
2023-05-02T02:59:01.448Z,35.47
2023-05-02T03:00:01.710Z,36.64
2023-05-02T03:01:01.505Z,35.90
2023-05-02T03:02:01.697Z,35.85
2023-05-02T03:03:01.829Z,36.12
2023-05-02T03:04:01.707Z,37.61
2023-05-02T03:05:01.674Z,37.88
2023-05-02T03:06:01.735Z,36.66
2023-05-02T03:07:01.788Z,38.21
2023-05-02T03:08:01.851Z,36.88
2023-05-02T03:09:01.895Z,37.54
2023-05-02T03:10:02.160Z,36.29
2023-05-02T03:11:01.971Z,37.43
2023-05-02T03:12:02.011Z,34.97
2023-05-02T03:13:02.045Z,36.68
2023-05-02T03:14:02.081Z,35.32
2023-05-02T03:15:02.170Z,35.95
2023-05-02T03:16:02.288Z,37.71
2023-05-02T03:17:02.234Z,37.52
2023-05-02T03:18:02.295Z,36.91
2023-05-02T03:19:02.308Z,36.47
2023-05-02T03:20:02.501Z,36.83
2023-05-02T03:21:02.469Z,36.44
2023-05-02T03:22:02.782Z,36.95
2023-05-02T03:23:02.516Z,36.97
2023-05-02T03:24:02.526Z,33.49
2023-05-02T03:25:02.592Z,34.77
2023-05-02T03:26:02.624Z,38.10
2023-05-02T03:27:02.674Z,36.08
2023-05-02T03:28:02.724Z,36.85
2023-05-02T03:29:02.776Z,37.27
2023-05-02T03:30:02.975Z,40.10
2023-05-02T03:31:02.866Z,38.51
2023-05-02T03:32:03.068Z,34.97
2023-05-02T03:33:02.991Z,37.75
2023-05-02T03:34:03.001Z,33.97
2023-05-02T03:35:03.038Z,33.57
2023-05-02T03:36:03.128Z,37.66
2023-05-02T03:37:03.171Z,36.70
2023-05-02T03:38:03.207Z,34.86
2023-05-02T03:39:03.250Z,39.67
2023-05-02T03:40:03.403Z,37.07
2023-05-02T03:41:03.362Z,36.84
2023-05-02T03:42:03.791Z,37.48
2023-05-02T03:43:03.449Z,36.58
2023-05-02T03:44:03.485Z,35.78
2023-05-02T03:45:03.540Z,37.84
2023-05-02T03:46:03.613Z,36.61
2023-05-02T03:47:03.722Z,37.11
2023-05-02T03:48:03.711Z,37.23
2023-05-02T03:49:03.700Z,32.87
2023-05-02T03:50:03.781Z,35.32
2023-05-02T03:51:03.812Z,35.56
2023-05-02T03:52:03.881Z,32.42
2023-05-02T03:53:03.928Z,35.78
2023-05-02T03:54:03.921Z,35.20
2023-05-02T03:55:03.992Z,34.32
2023-05-02T03:56:04.011Z,36.81
2023-05-02T03:57:04.053Z,35.86
2023-05-02T03:58:04.125Z,33.88
2023-05-02T03:59:04.175Z,31.75
2023-05-02T04:00:04.235Z,33.11
2023-05-02T04:01:04.258Z,32.12
2023-05-02T04:02:04.303Z,33.03
2023-05-02T04:03:04.352Z,34.11
2023-05-02T04:04:04.424Z,31.80
2023-05-02T04:05:04.425Z,29.84
2023-05-02T04:06:04.467Z,32.92
2023-05-02T04:07:04.540Z,30.39
2023-05-02T04:08:04.547Z,29.80
2023-05-02T04:09:04.624Z,31.44
2023-05-02T04:10:04.702Z,29.82
2023-05-02T04:11:04.716Z,31.05
2023-05-02T04:12:04.749Z,31.39
2023-05-02T04:13:04.776Z,32.92
2023-05-02T04:14:04.832Z,31.68
2023-05-02T04:15:04.875Z,34.38
2023-05-02T04:16:04.904Z,32.75
2023-05-02T04:17:05.397Z,30.70
2023-05-02T04:18:05.024Z,31.66
2023-05-02T04:19:05.046Z,31.45
2023-05-02T04:20:05.812Z,32.86
2023-05-02T04:21:05.135Z,30.38
2023-05-02T04:22:05.191Z,32.81
2023-05-02T04:23:05.258Z,31.80
2023-05-02T04:24:05.285Z,33.09
2023-05-02T04:25:05.306Z,31.30
2023-05-02T04:26:05.357Z,31.71
2023-05-02T04:27:05.828Z,32.08
2023-05-02T04:28:05.442Z,31.62
2023-05-02T04:29:05.761Z,30.36
2023-05-02T04:30:05.508Z,32.29
2023-05-02T04:31:05.617Z,32.81
2023-05-02T04:32:05.633Z,29.80
2023-05-02T04:33:05.702Z,31.66
2023-05-02T04:34:05.700Z,30.96
2023-05-02T04:35:05.738Z,33.66
2023-05-02T04:36:05.759Z,31.86
2023-05-02T04:37:05.846Z,31.71
2023-05-02T04:38:05.849Z,30.03
2023-05-02T04:39:05.899Z,33.40
2023-05-02T04:40:05.954Z,31.46
2023-05-02T04:41:09.141Z,30.85
2023-05-02T04:42:05.996Z,33.65
2023-05-02T04:43:06.116Z,33.74
2023-05-02T04:44:05.958Z,33.44
2023-05-02T04:45:06.010Z,30.65
2023-05-02T04:46:05.994Z,31.38
2023-05-02T04:47:05.970Z,29.46
2023-05-02T04:48:06.034Z,29.05
2023-05-02T04:49:05.965Z,27.43
2023-05-02T04:50:05.924Z,30.23
2023-05-02T04:51:05.959Z,30.57
2023-05-02T04:52:05.926Z,32.09
2023-05-02T04:53:05.946Z,30.07
2023-05-02T04:54:05.916Z,30.14
2023-05-02T04:55:05.912Z,30.07
2023-05-02T04:56:05.934Z,32.28
2023-05-02T04:57:05.920Z,34.31
2023-05-02T04:58:05.919Z,34.22
2023-05-02T04:59:05.899Z,29.86
2023-05-02T05:00:05.890Z,31.31
2023-05-02T05:01:05.874Z,32.82
2023-05-02T05:02:05.962Z,33.48
2023-05-02T05:03:05.963Z,30.62
2023-05-02T05:04:05.931Z,49.35
2023-05-02T05:05:05.910Z,54.72
2023-05-02T05:06:05.904Z,62.69
2023-05-02T05:07:05.827Z,71.41
2023-05-02T05:08:05.865Z,60.17
2023-05-02T05:09:05.829Z,45.05
2023-05-02T05:10:05.824Z,33.81
2023-05-02T05:11:05.797Z,26.85
2023-05-02T05:12:05.835Z,25.00
2023-05-02T05:13:05.806Z,25.23
2023-05-02T05:14:05.800Z,25.52
2023-05-02T05:15:05.792Z,26.79
2023-05-02T05:16:05.823Z,27.40
2023-05-02T05:17:05.877Z,27.39
2023-05-02T05:18:05.881Z,31.12
2023-05-02T05:19:05.750Z,32.50
2023-05-02T05:20:06.347Z,29.11
2023-05-02T05:21:05.764Z,33.52
2023-05-02T05:22:05.719Z,31.01
2023-05-02T05:23:05.733Z,28.96
2023-05-02T05:24:05.774Z,25.54
2023-05-02T05:25:05.793Z,27.92
2023-05-02T05:26:05.790Z,29.93
2023-05-02T05:27:05.839Z,33.97
2023-05-02T05:28:05.836Z,29.21
2023-05-02T05:29:05.872Z,25.00
2023-05-02T05:30:05.934Z,25.54
2023-05-02T05:31:05.985Z,24.61
2023-05-02T05:32:06.118Z,30.22
2023-05-02T05:33:06.009Z,29.81
2023-05-02T05:34:06.030Z,28.84
2023-05-02T05:35:06.011Z,32.53
2023-05-02T05:36:05.991Z,29.44
2023-05-02T05:37:06.052Z,33.81
2023-05-02T05:38:06.015Z,32.29
2023-05-02T05:39:06.048Z,32.24
2023-05-02T05:40:06.078Z,36.74
2023-05-02T05:41:06.066Z,40.84
2023-05-02T05:42:06.123Z,42.75
2023-05-02T05:43:06.155Z,41.28
2023-05-02T05:44:06.165Z,44.67
2023-05-02T05:45:06.189Z,55.02
2023-05-02T05:46:06.259Z,52.06
2023-05-02T05:47:06.370Z,64.06
2023-05-02T05:48:06.313Z,67.00
2023-05-02T05:49:06.295Z,66.82
2023-05-02T05:50:06.320Z,67.15
2023-05-02T05:51:06.358Z,71.77
2023-05-02T05:52:06.382Z,83.94
2023-05-02T05:53:06.449Z,92.70
2023-05-02T05:54:06.455Z,76.77
2023-05-02T05:55:06.465Z,66.81
2023-05-02T05:56:06.489Z,54.86
2023-05-02T05:57:06.480Z,74.89
2023-05-02T05:58:06.508Z,79.60
2023-05-02T05:59:06.553Z,102.71
2023-05-02T06:00:06.566Z,86.20
2023-05-02T06:01:06.559Z,97.58
2023-05-02T06:02:06.608Z,114.70
2023-05-02T06:03:08.145Z,132.83
2023-05-02T06:04:06.715Z,149.11
2023-05-02T06:05:06.664Z,152.72
2023-05-02T06:06:06.646Z,151.26
2023-05-02T06:07:06.557Z,165.55
2023-05-02T06:08:06.556Z,186.11
2023-05-02T06:09:06.530Z,209.94
2023-05-02T06:10:06.518Z,226.70
2023-05-02T06:11:06.524Z,240.73
2023-05-02T06:12:06.531Z,249.64
2023-05-02T06:13:06.518Z,250.06
2023-05-02T06:14:06.486Z,250.00
2023-05-02T06:15:06.480Z,250.00
2023-05-02T06:16:06.527Z,249.78
2023-05-02T06:17:06.482Z,249.23
2023-05-02T06:18:06.498Z,248.89
2023-05-02T06:19:06.437Z,249.82
2023-05-02T06:20:06.480Z,250.00
2023-05-02T06:21:06.493Z,248.85
2023-05-02T06:22:06.429Z,249.35
2023-05-02T06:23:06.602Z,249.70
2023-05-02T06:24:06.962Z,250.00
2023-05-02T06:25:06.406Z,249.38
2023-05-02T06:26:06.424Z,249.78
2023-05-02T06:27:06.403Z,250.00
2023-05-02T06:28:06.421Z,250.00
2023-05-02T06:29:06.382Z,249.45
2023-05-02T06:30:06.388Z,250.05
2023-05-02T06:31:06.500Z,249.32
2023-05-02T06:32:06.580Z,250.00
2023-05-02T06:33:06.491Z,249.70
2023-05-02T06:34:06.374Z,249.72
2023-05-02T06:35:06.333Z,249.24
2023-05-02T06:36:06.359Z,249.31
2023-05-02T06:37:06.339Z,250.15
2023-05-02T06:38:06.370Z,249.45
2023-05-02T06:39:06.351Z,250.00
2023-05-02T06:40:06.331Z,249.14
2023-05-02T06:41:06.322Z,249.07
2023-05-02T06:42:06.340Z,250.00
2023-05-02T06:43:06.295Z,249.35
2023-05-02T06:44:06.289Z,250.00
2023-05-02T06:45:06.308Z,250.00
2023-05-02T06:46:06.298Z,249.64
2023-05-02T06:47:06.332Z,248.52
2023-05-02T06:48:06.306Z,248.80
2023-05-02T06:49:06.274Z,249.75
2023-05-02T06:50:06.239Z,248.98
2023-05-02T06:51:06.257Z,249.55
2023-05-02T06:52:06.272Z,250.06
2023-05-02T06:53:06.220Z,248.27
2023-05-02T06:54:06.201Z,249.86
2023-05-02T06:55:06.232Z,248.52
2023-05-02T06:56:06.190Z,248.56
2023-05-02T06:57:06.232Z,244.13
2023-05-02T06:58:06.187Z,242.02
2023-05-02T06:59:06.187Z,238.87
2023-05-02T07:00:06.230Z,237.05
2023-05-02T07:01:06.216Z,236.98
2023-05-02T07:02:06.139Z,236.49
2023-05-02T07:03:06.214Z,235.88
2023-05-02T07:04:06.198Z,237.55
2023-05-02T07:05:06.183Z,236.56
2023-05-02T07:06:06.143Z,236.35
2023-05-02T07:07:06.116Z,237.59
2023-05-02T07:08:06.105Z,237.60
2023-05-02T07:09:06.100Z,239.01
2023-05-02T07:10:06.132Z,238.24
2023-05-02T07:11:06.168Z,238.41
2023-05-02T07:12:07.038Z,238.15
2023-05-02T07:13:06.825Z,238.17
2023-05-02T07:14:06.246Z,238.09
2023-05-02T07:15:06.258Z,238.59
2023-05-02T07:16:06.347Z,237.35
2023-05-02T07:17:06.424Z,238.24
2023-05-02T07:18:06.436Z,237.88
2023-05-02T07:19:06.381Z,238.50
2023-05-02T07:20:06.431Z,238.89
2023-05-02T07:21:06.452Z,237.69
2023-05-02T07:22:06.511Z,239.00
2023-05-02T07:23:06.557Z,238.08
2023-05-02T07:24:06.595Z,239.00
2023-05-02T07:25:06.615Z,238.35
2023-05-02T07:26:06.658Z,239.52
2023-05-02T07:27:06.670Z,238.64
2023-05-02T07:28:06.696Z,239.45
2023-05-02T07:29:06.716Z,238.78
2023-05-02T07:30:06.783Z,239.11
2023-05-02T07:31:06.812Z,238.61
2023-05-02T07:32:06.864Z,238.85
2023-05-02T07:33:06.849Z,238.69
2023-05-02T07:34:06.886Z,239.04
2023-05-02T07:35:06.911Z,239.02
2023-05-02T07:36:06.904Z,239.13
2023-05-02T07:37:06.950Z,237.86
2023-05-02T07:38:06.965Z,239.01
2023-05-02T07:39:06.955Z,239.99
2023-05-02T07:40:07.013Z,239.57
2023-05-02T07:41:07.044Z,238.72
2023-05-02T07:42:07.047Z,239.78
2023-05-02T07:43:07.940Z,240.55
2023-05-02T07:44:07.057Z,240.50
2023-05-02T07:45:07.111Z,241.74
2023-05-02T07:46:07.211Z,241.02
2023-05-02T07:47:07.117Z,240.39
2023-05-02T07:48:07.219Z,239.59
2023-05-02T07:49:07.204Z,230.98
2023-05-02T07:50:07.620Z,220.02
2023-05-02T07:51:07.234Z,186.37
2023-05-02T07:52:07.323Z,187.26
2023-05-02T07:53:07.331Z,189.54
2023-05-02T07:54:07.395Z,177.66
2023-05-02T07:55:07.467Z,146.21
2023-05-02T07:56:07.461Z,98.54
2023-05-02T07:57:07.516Z,79.71
2023-05-02T07:58:07.546Z,78.72
2023-05-02T07:59:07.541Z,71.98
2023-05-02T08:00:07.598Z,74.19
2023-05-02T08:01:07.633Z,82.30
2023-05-02T08:02:07.696Z,92.47
2023-05-02T08:03:07.996Z,100.59
2023-05-02T08:04:08.030Z,109.41
2023-05-02T08:05:07.975Z,110.80
2023-05-02T08:06:07.817Z,115.96
2023-05-02T08:07:07.839Z,119.30
2023-05-02T08:08:07.894Z,122.48
2023-05-02T08:09:07.918Z,118.97
2023-05-02T08:10:07.923Z,119.62
2023-05-02T08:11:07.940Z,119.97
2023-05-02T08:12:07.985Z,122.86
2023-05-02T08:13:08.399Z,123.34
2023-05-02T08:14:08.002Z,124.00
2023-05-02T08:15:08.037Z,127.49
2023-05-02T08:16:08.102Z,131.01
2023-05-02T08:17:08.072Z,134.97
2023-05-02T08:18:08.147Z,138.20
2023-05-02T08:19:08.160Z,140.99
2023-05-02T08:20:08.206Z,142.22
2023-05-02T08:21:08.249Z,145.09
2023-05-02T08:22:08.314Z,146.65
2023-05-02T08:23:08.352Z,148.37
2023-05-02T08:24:08.396Z,150.47
2023-05-02T08:25:08.455Z,150.93
2023-05-02T08:26:08.530Z,153.07
2023-05-02T08:27:08.564Z,154.37
2023-05-02T08:28:08.617Z,158.86
2023-05-02T08:29:08.629Z,159.85
2023-05-02T08:30:09.123Z,161.98
2023-05-02T08:31:08.779Z,162.61
2023-05-02T08:32:08.803Z,163.44
2023-05-02T08:33:08.954Z,163.46
2023-05-02T08:34:08.834Z,164.36
2023-05-02T08:35:08.861Z,167.02
2023-05-02T08:36:08.917Z,167.90
2023-05-02T08:37:08.909Z,170.53
2023-05-02T08:38:08.971Z,170.39
2023-05-02T08:39:08.965Z,171.87
2023-05-02T08:40:08.976Z,175.15
2023-05-02T08:41:09.018Z,176.28
2023-05-02T08:42:09.033Z,162.24
2023-05-02T08:43:09.409Z,148.65
2023-05-02T08:44:09.135Z,148.22
2023-05-02T08:45:09.188Z,150.16
2023-05-02T08:46:09.232Z,139.60
2023-05-02T08:47:09.339Z,143.39
2023-05-02T08:48:09.425Z,148.14
2023-05-02T08:49:09.395Z,143.29
2023-05-02T08:50:09.477Z,116.17
2023-05-02T08:51:09.438Z,119.03
2023-05-02T08:52:09.483Z,125.97
2023-05-02T08:53:09.486Z,127.72
2023-05-02T08:54:09.554Z,120.95
2023-05-02T08:55:09.552Z,117.15
2023-05-02T08:56:09.543Z,127.66
2023-05-02T08:57:09.562Z,124.21
2023-05-02T08:58:09.564Z,116.90
2023-05-02T08:59:09.613Z,120.61
2023-05-02T09:00:09.614Z,124.26
2023-05-02T09:01:09.652Z,132.25
2023-05-02T09:02:09.622Z,142.82
2023-05-02T09:03:09.648Z,152.81
2023-05-02T09:04:09.728Z,158.28
2023-05-02T09:05:09.712Z,162.65
2023-05-02T09:06:09.846Z,164.92
2023-05-02T09:07:10.909Z,166.40
2023-05-02T09:08:09.869Z,169.11
2023-05-02T09:09:09.911Z,175.62
2023-05-02T09:10:09.966Z,177.25
2023-05-02T09:11:09.947Z,180.57
2023-05-02T09:12:10.260Z,185.74
2023-05-02T09:13:10.039Z,188.17
2023-05-02T09:14:10.017Z,191.07
2023-05-02T09:15:10.036Z,193.77
2023-05-02T09:16:10.112Z,193.48
2023-05-02T09:17:10.202Z,196.69
2023-05-02T09:18:10.085Z,199.14
2023-05-02T09:19:10.111Z,202.55
2023-05-02T09:20:10.087Z,206.23
2023-05-02T09:21:10.130Z,207.46
2023-05-02T09:22:10.141Z,208.41
2023-05-02T09:23:10.155Z,211.32
2023-05-02T09:24:10.150Z,213.81
2023-05-02T09:25:10.182Z,215.79
2023-05-02T09:26:10.206Z,218.04
2023-05-02T09:27:10.216Z,219.08
2023-05-02T09:28:10.245Z,222.41
2023-05-02T09:29:10.257Z,223.40
2023-05-02T09:30:10.265Z,225.63
2023-05-02T09:31:10.290Z,228.45
2023-05-02T09:32:10.402Z,229.96
2023-05-02T09:33:10.438Z,231.98
2023-05-02T09:34:10.343Z,232.94
2023-05-02T09:35:10.358Z,234.43
2023-05-02T09:36:10.425Z,236.66
2023-05-02T09:37:10.442Z,239.82
2023-05-02T09:38:11.092Z,240.87
2023-05-02T09:39:10.492Z,243.58
2023-05-02T09:40:10.502Z,245.43
2023-05-02T09:41:10.540Z,247.65
2023-05-02T09:42:10.575Z,249.05
2023-05-02T09:43:10.636Z,250.00
2023-05-02T09:44:10.683Z,248.76
2023-05-02T09:45:10.748Z,249.08
2023-05-02T09:46:10.795Z,251.15
2023-05-02T09:47:10.841Z,247.13
2023-05-02T09:48:10.968Z,241.29
2023-05-02T09:49:10.893Z,226.89
2023-05-02T09:50:10.910Z,218.75
2023-05-02T09:51:10.928Z,208.23
2023-05-02T09:52:10.994Z,185.12
2023-05-02T09:53:11.430Z,194.55
2023-05-02T09:54:10.983Z,184.71
2023-05-02T09:55:11.011Z,168.27
2023-05-02T09:56:11.060Z,147.96
2023-05-02T09:57:11.444Z,159.13
2023-05-02T09:58:11.396Z,167.39
2023-05-02T09:59:11.077Z,172.22
2023-05-02T10:00:11.236Z,179.33
2023-05-02T10:01:11.187Z,182.88
2023-05-02T10:02:11.305Z,185.74
2023-05-02T10:03:11.511Z,189.71
2023-05-02T10:04:11.223Z,191.58
2023-05-02T10:05:11.197Z,194.19
2023-05-02T10:06:11.281Z,196.92
2023-05-02T10:07:11.240Z,200.29
2023-05-02T10:08:11.404Z,202.74
2023-05-02T10:09:11.272Z,206.62
2023-05-02T10:10:11.285Z,209.81
2023-05-02T10:11:11.333Z,211.52
2023-05-02T10:12:11.411Z,214.17
2023-05-02T10:13:11.438Z,215.99
2023-05-02T10:14:11.457Z,219.30
2023-05-02T10:15:11.507Z,221.25
2023-05-02T10:16:11.608Z,224.50
2023-05-02T10:17:11.618Z,227.64
2023-05-02T10:18:11.686Z,229.91
2023-05-02T10:19:11.725Z,230.96
2023-05-02T10:20:11.746Z,233.75
2023-05-02T10:21:11.829Z,235.49
2023-05-02T10:22:11.825Z,237.44
2023-05-02T10:23:11.856Z,240.22
2023-05-02T10:24:11.960Z,241.83
2023-05-02T10:25:11.979Z,242.73
2023-05-02T10:26:12.042Z,245.99
2023-05-02T10:27:12.084Z,247.13
2023-05-02T10:28:12.140Z,248.43
2023-05-02T10:29:12.187Z,249.22
2023-05-02T10:30:12.227Z,249.73
2023-05-02T10:31:12.279Z,250.00
2023-05-02T10:32:12.300Z,250.00
2023-05-02T10:33:12.333Z,249.98
2023-05-02T10:34:12.355Z,249.38
2023-05-02T10:35:12.406Z,249.26
2023-05-02T10:36:12.461Z,250.00
2023-05-02T10:37:12.494Z,249.37
2023-05-02T10:38:12.486Z,250.00
2023-05-02T10:39:12.503Z,249.49
2023-05-02T10:40:12.636Z,241.40
2023-05-02T10:41:12.614Z,244.87
2023-05-02T10:42:12.667Z,226.58
2023-05-02T10:43:12.737Z,224.69
2023-05-02T10:44:12.761Z,204.73
2023-05-02T10:45:12.784Z,199.94
2023-05-02T10:46:12.914Z,209.17
2023-05-02T10:47:12.894Z,163.42
2023-05-02T10:48:13.020Z,148.02
2023-05-02T10:49:12.916Z,113.15
2023-05-02T10:50:12.935Z,114.54
2023-05-02T10:51:12.966Z,112.03
2023-05-02T10:52:12.976Z,123.36
2023-05-02T10:53:13.020Z,129.45
2023-05-02T10:54:12.987Z,140.91
2023-05-02T10:55:14.027Z,141.04
2023-05-02T10:56:13.056Z,141.01
2023-05-02T10:57:12.990Z,145.24
2023-05-02T10:58:13.470Z,151.60
2023-05-02T10:59:13.008Z,157.77
2023-05-02T11:00:12.961Z,159.91
2023-05-02T11:01:13.004Z,165.21
2023-05-02T11:02:13.022Z,163.60
2023-05-02T11:03:13.469Z,161.04
2023-05-02T11:04:12.951Z,166.31
2023-05-02T11:05:12.956Z,170.25
2023-05-02T11:06:12.949Z,172.36
2023-05-02T11:07:12.902Z,172.47
2023-05-02T11:08:12.958Z,174.47
2023-05-02T11:09:12.983Z,174.15
2023-05-02T11:10:12.993Z,173.02
2023-05-02T11:11:13.043Z,174.76
2023-05-02T11:12:13.120Z,173.96
2023-05-02T11:13:13.144Z,173.96
2023-05-02T11:14:14.351Z,174.76
2023-05-02T11:15:13.186Z,175.97
2023-05-02T11:16:13.232Z,176.95
2023-05-02T11:17:13.214Z,177.45
2023-05-02T11:18:13.591Z,179.90
2023-05-02T11:19:13.258Z,179.10
2023-05-02T11:20:13.330Z,177.46
2023-05-02T11:21:13.358Z,179.01
2023-05-02T11:22:13.932Z,184.14
2023-05-02T11:23:13.434Z,185.60
2023-05-02T11:24:13.390Z,187.72
2023-05-02T11:25:13.381Z,189.00
2023-05-02T11:26:13.414Z,192.53
2023-05-02T11:27:13.419Z,190.12
2023-05-02T11:28:13.471Z,191.32
2023-05-02T11:29:13.463Z,194.91
2023-05-02T11:30:13.551Z,196.82
2023-05-02T11:31:13.485Z,202.36
2023-05-02T11:32:13.572Z,206.99
2023-05-02T11:33:13.599Z,208.22
2023-05-02T11:34:13.587Z,209.85
2023-05-02T11:35:13.557Z,213.63
2023-05-02T11:36:13.589Z,208.30
2023-05-02T11:37:13.632Z,169.66
2023-05-02T11:38:13.954Z,123.86
2023-05-02T11:39:13.819Z,104.84
2023-05-02T11:40:13.827Z,59.10
2023-05-02T11:41:13.897Z,21.80
2023-05-02T11:42:13.808Z,18.86
2023-05-02T11:43:13.861Z,17.51
2023-05-02T11:44:13.858Z,25.30
2023-05-02T11:45:13.875Z,24.30
2023-05-02T11:46:13.975Z,24.26
2023-05-02T11:47:13.999Z,15.71
2023-05-02T11:48:14.036Z,25.00
2023-05-02T11:49:15.025Z,44.22
2023-05-02T11:50:14.118Z,58.52
2023-05-02T11:51:14.209Z,57.76
2023-05-02T11:52:14.213Z,56.55
2023-05-02T11:53:14.254Z,59.83
2023-05-02T11:54:14.302Z,66.38
2023-05-02T11:55:14.372Z,65.13
2023-05-02T11:56:14.430Z,79.20
2023-05-02T11:57:14.472Z,60.94
2023-05-02T11:58:14.496Z,56.52
2023-05-02T11:59:14.572Z,48.32
2023-05-02T12:00:14.621Z,61.56
2023-05-02T12:01:14.943Z,71.56
2023-05-02T12:02:14.733Z,80.65
2023-05-02T12:03:14.889Z,87.91
2023-05-02T12:04:14.788Z,74.14
2023-05-02T12:05:14.890Z,81.39
2023-05-02T12:06:15.271Z,90.59
2023-05-02T12:07:14.858Z,96.64
2023-05-02T12:08:14.834Z,81.87
2023-05-02T12:09:14.902Z,64.83
2023-05-02T12:10:14.938Z,58.67
2023-05-02T12:11:14.928Z,55.29
2023-05-02T12:12:15.016Z,57.97
2023-05-02T12:13:15.037Z,62.61
2023-05-02T12:14:15.089Z,63.62
2023-05-02T12:15:15.144Z,64.33
2023-05-02T12:16:15.370Z,57.74
2023-05-02T12:17:15.250Z,60.58
2023-05-02T12:18:15.315Z,73.86
2023-05-02T12:19:15.413Z,75.62
2023-05-02T12:20:15.418Z,75.47
2023-05-02T12:21:15.479Z,91.81
2023-05-02T12:22:15.530Z,86.30
2023-05-02T12:23:16.016Z,71.02
2023-05-02T12:24:15.606Z,68.88
2023-05-02T12:25:15.638Z,63.86
2023-05-02T12:26:15.708Z,74.98
2023-05-02T12:27:15.732Z,81.94
2023-05-02T12:28:15.803Z,86.73
2023-05-02T12:29:15.807Z,79.72
2023-05-02T12:30:15.822Z,80.36
2023-05-02T12:31:15.909Z,78.74
2023-05-02T12:32:15.878Z,83.42
2023-05-02T12:33:15.943Z,87.57
2023-05-02T12:34:15.916Z,90.61
2023-05-02T12:35:15.958Z,98.50
2023-05-02T12:36:16.034Z,98.58
2023-05-02T12:37:16.058Z,95.68
2023-05-02T12:38:16.102Z,88.61
2023-05-02T12:39:16.486Z,85.54
2023-05-02T12:40:16.143Z,82.49
2023-05-02T12:41:16.186Z,79.96
2023-05-02T12:42:16.238Z,80.52